createdAt,value
2017-09-16T00:00:33.215Z,2.37
2017-09-16T00:03:01.356Z,2.30
2017-09-16T00:05:29.448Z,2.30
2017-09-16T00:07:57.533Z,2.07
2017-09-16T00:10:25.617Z,2.50
2017-09-16T00:12:53.688Z,1.90
2017-09-16T00:15:21.768Z,2.57
2017-09-16T00:17:49.849Z,1.73
2017-09-16T00:20:17.940Z,2.17
2017-09-16T00:22:46.196Z,2.00
2017-09-16T00:25:14.271Z,2.00
2017-09-16T00:27:42.367Z,2.33
2017-09-16T00:30:11.539Z,2.97
2017-09-16T00:32:41.243Z,2.60
2017-09-16T00:35:09.343Z,1.90
2017-09-16T00:37:38.195Z,2.47
2017-09-16T00:40:06.276Z,2.90
2017-09-16T00:42:34.371Z,2.60
2017-09-16T00:45:03.212Z,2.20
2017-09-16T00:47:31.290Z,2.03
2017-09-16T00:49:59.362Z,2.10
2017-09-16T00:52:27.481Z,1.80
2017-09-16T00:54:56.336Z,1.90
2017-09-16T00:57:24.429Z,2.03
2017-09-16T00:59:53.293Z,2.00
2017-09-16T01:02:21.362Z,2.20
2017-09-16T01:04:49.454Z,2.27
2017-09-16T01:07:18.299Z,2.33
2017-09-16T01:09:46.392Z,2.20
2017-09-16T01:12:14.475Z,2.10
2017-09-16T01:14:42.552Z,2.20
2017-09-16T01:17:11.407Z,2.60
2017-09-16T01:19:39.492Z,2.00
2017-09-16T01:22:07.583Z,2.23
2017-09-16T01:24:36.424Z,2.50
2017-09-16T01:27:04.499Z,2.50
2017-09-16T01:29:32.608Z,2.30
2017-09-16T01:32:00.666Z,3.23
2017-09-16T01:34:28.748Z,2.90
2017-09-16T01:36:56.845Z,2.70
2017-09-16T01:39:25.020Z,2.33
2017-09-16T01:41:53.111Z,2.40
2017-09-16T01:44:21.192Z,2.70
2017-09-16T01:46:49.277Z,2.80
2017-09-16T01:49:17.355Z,3.90
2017-09-16T01:51:45.508Z,3.10
2017-09-16T01:54:13.591Z,3.07
2017-09-16T01:56:41.675Z,3.80
2017-09-16T01:59:09.855Z,3.90
2017-09-16T02:01:37.940Z,3.30
2017-09-16T02:04:06.025Z,3.20
2017-09-16T02:06:34.101Z,3.50
2017-09-16T02:09:02.272Z,4.50
2017-09-16T02:11:30.395Z,4.67
2017-09-16T02:13:58.479Z,4.57
2017-09-16T02:16:26.553Z,5.30
2017-09-16T02:18:55.403Z,4.13
2017-09-16T02:21:23.475Z,5.30
2017-09-16T02:23:51.657Z,3.63
2017-09-16T02:26:19.731Z,3.47
2017-09-16T02:28:47.821Z,3.10
2017-09-16T02:31:15.982Z,4.73
2017-09-16T02:33:44.070Z,3.90
2017-09-16T02:36:12.143Z,5.23
2017-09-16T02:38:40.210Z,5.83
2017-09-16T02:41:09.058Z,5.53
2017-09-16T02:43:37.228Z,4.00
2017-09-16T02:46:05.315Z,4.27
2017-09-16T02:48:33.399Z,4.30
2017-09-16T02:51:01.593Z,5.97
2017-09-16T02:53:29.710Z,5.80
2017-09-16T02:55:57.800Z,5.60
2017-09-16T02:58:25.876Z,5.57
2017-09-16T03:00:53.962Z,4.70
2017-09-16T03:03:22.132Z,5.43
2017-09-16T03:05:50.208Z,4.30
2017-09-16T03:08:18.284Z,5.03
2017-09-16T03:10:46.384Z,4.13
2017-09-16T03:13:14.459Z,4.43
2017-09-16T03:15:42.552Z,3.30
2017-09-16T03:18:10.640Z,3.50
2017-09-16T03:20:38.766Z,4.83
2017-09-16T03:23:06.838Z,4.10
2017-09-16T03:25:34.911Z,4.60
2017-09-16T03:28:03.049Z,9.10
2017-09-16T03:30:31.898Z,8.27
2017-09-16T03:32:59.984Z,6.53
2017-09-16T03:35:28.063Z,6.80
2017-09-16T03:37:56.139Z,7.33
2017-09-16T03:40:24.999Z,7.70
2017-09-16T03:42:53.080Z,8.03
2017-09-16T03:45:21.159Z,5.30
2017-09-16T03:47:49.243Z,5.07
2017-09-16T03:50:17.325Z,5.47
2017-09-16T03:52:45.407Z,6.13
2017-09-16T03:55:13.500Z,4.20
2017-09-16T03:57:41.715Z,5.70
2017-09-16T04:00:09.793Z,4.40
2017-09-16T04:02:45.494Z,4.90
2017-09-16T04:05:13.574Z,3.70
2017-09-16T04:07:41.655Z,3.60
2017-09-16T04:10:09.752Z,4.90
2017-09-16T04:12:38.815Z,4.77
2017-09-16T04:15:06.887Z,4.13
2017-09-16T04:17:34.966Z,4.70
2017-09-16T04:20:03.047Z,4.00
2017-09-16T04:22:31.214Z,4.00
2017-09-16T04:24:59.290Z,3.67
2017-09-16T04:27:27.558Z,4.10
2017-09-16T04:29:57.214Z,4.87
2017-09-16T04:32:25.309Z,4.90
2017-09-16T04:34:53.490Z,3.83
2017-09-16T04:37:21.588Z,3.67
2017-09-16T04:39:49.667Z,3.87
2017-09-16T04:42:18.516Z,4.33
2017-09-16T04:44:46.592Z,4.57
2017-09-16T04:47:14.668Z,5.30
2017-09-16T04:49:42.742Z,4.57
2017-09-16T04:52:10.853Z,4.00
2017-09-16T04:54:39.704Z,4.60
2017-09-16T04:57:07.779Z,6.00
2017-09-16T04:59:35.892Z,6.77
2017-09-16T05:02:03.967Z,7.30
2017-09-16T05:04:32.065Z,5.20
2017-09-16T05:07:00.262Z,4.27
2017-09-16T05:09:28.346Z,4.20
2017-09-16T05:11:57.196Z,4.50
2017-09-16T05:14:25.297Z,5.17
2017-09-16T05:16:53.383Z,6.63
2017-09-16T05:19:22.228Z,7.87
2017-09-16T05:21:50.315Z,9.27
2017-09-16T05:24:18.401Z,9.10
2017-09-16T05:26:47.260Z,7.53
2017-09-16T05:29:15.450Z,7.20
2017-09-16T05:31:45.040Z,6.50
2017-09-16T05:34:13.247Z,8.93
2017-09-16T05:36:42.136Z,6.70
2017-09-16T05:39:10.266Z,3.83
2017-09-16T05:41:38.356Z,3.30
2017-09-16T05:44:06.433Z,3.53
2017-09-16T05:46:34.518Z,3.70
2017-09-16T05:49:03.359Z,5.47
2017-09-16T05:51:31.450Z,10.53
2017-09-16T05:53:59.536Z,8.23
2017-09-16T05:56:27.726Z,8.87
2017-09-16T05:58:56.562Z,6.20
2017-09-16T06:01:24.663Z,7.00
2017-09-16T06:03:52.743Z,4.97
2017-09-16T06:06:22.184Z,6.47
2017-09-16T06:08:50.314Z,6.37
2017-09-16T06:11:18.399Z,5.33
2017-09-16T06:13:46.531Z,5.00
2017-09-16T06:16:14.595Z,4.00
2017-09-16T06:18:42.680Z,4.53
2017-09-16T06:21:10.867Z,5.20
2017-09-16T06:23:40.576Z,8.03
2017-09-16T06:26:08.662Z,13.37
2017-09-16T06:28:36.739Z,4.60
2017-09-16T06:31:04.814Z,3.53
2017-09-16T06:33:33.063Z,7.97
2017-09-16T06:36:01.138Z,8.57
2017-09-16T06:38:29.224Z,8.30
2017-09-16T06:40:57.296Z,6.73
2017-09-16T06:43:25.545Z,6.77
2017-09-16T06:45:53.686Z,8.27
2017-09-16T06:48:21.757Z,8.80
2017-09-16T06:50:49.903Z,7.20
2017-09-16T06:53:17.996Z,6.50
2017-09-16T06:55:46.100Z,12.70
2017-09-16T06:58:14.192Z,11.70
2017-09-16T07:00:43.035Z,5.57
2017-09-16T07:03:11.121Z,8.17
2017-09-16T07:05:39.215Z,14.40
2017-09-16T07:08:08.085Z,12.27
2017-09-16T07:10:36.167Z,11.40
2017-09-16T07:13:05.035Z,10.27
2017-09-16T07:15:33.118Z,9.50
2017-09-16T07:18:01.212Z,5.57
2017-09-16T07:20:30.054Z,4.50
2017-09-16T07:22:58.224Z,4.40
2017-09-16T07:25:26.319Z,7.37
2017-09-16T07:27:55.171Z,10.07
2017-09-16T07:30:23.248Z,4.70
2017-09-16T07:32:51.344Z,7.27
2017-09-16T07:35:19.425Z,8.37
2017-09-16T07:37:48.272Z,9.00
2017-09-16T07:40:16.347Z,10.07
2017-09-16T07:42:44.536Z,8.93
2017-09-16T07:45:12.635Z,8.57
2017-09-16T07:47:40.717Z,6.10
2017-09-16T07:50:09.155Z,5.60
2017-09-16T07:52:37.239Z,5.43
2017-09-16T07:55:05.691Z,5.07
2017-09-16T07:57:33.779Z,4.27
2017-09-16T08:00:01.867Z,4.60
2017-09-16T08:02:29.951Z,4.60
2017-09-16T08:04:58.041Z,4.90
2017-09-16T08:07:26.120Z,4.70
2017-09-16T08:09:54.414Z,4.80
2017-09-16T08:12:22.618Z,3.87
2017-09-16T08:14:50.698Z,3.30
2017-09-16T08:17:19.544Z,3.90
2017-09-16T08:19:47.629Z,4.10
2017-09-16T08:22:15.728Z,3.80
2017-09-16T08:24:43.830Z,3.10
2017-09-16T08:27:11.928Z,3.60
2017-09-16T08:29:40.032Z,5.00
2017-09-16T08:32:08.206Z,6.30
2017-09-16T08:34:36.277Z,6.93
2017-09-16T08:37:04.357Z,6.13
2017-09-16T08:39:33.199Z,5.73
2017-09-16T08:42:01.295Z,5.70
2017-09-16T08:44:29.378Z,5.13
2017-09-16T08:46:57.459Z,4.73
2017-09-16T08:49:25.713Z,4.50
2017-09-16T08:51:53.801Z,4.77
2017-09-16T08:54:22.641Z,4.53
2017-09-16T08:56:50.952Z,4.80
2017-09-16T08:59:19.028Z,4.73
2017-09-16T09:01:47.875Z,9.10
2017-09-16T09:04:15.944Z,5.40
2017-09-16T09:06:44.035Z,3.83
2017-09-16T09:09:12.139Z,4.93
2017-09-16T09:11:40.217Z,4.70
2017-09-16T09:14:08.318Z,4.40
2017-09-16T09:16:36.456Z,4.20
2017-09-16T09:19:05.317Z,4.60
2017-09-16T09:21:34.196Z,4.20
2017-09-16T09:24:02.309Z,3.73
2017-09-16T09:26:30.457Z,3.87
2017-09-16T09:29:00.055Z,3.60
2017-09-16T09:31:28.139Z,4.33
2017-09-16T09:33:56.991Z,4.03
2017-09-16T09:36:25.071Z,4.30
2017-09-16T09:38:53.940Z,4.80
2017-09-16T09:41:22.033Z,4.23
2017-09-16T09:43:50.122Z,3.80
2017-09-16T09:46:18.287Z,4.50
2017-09-16T09:48:46.383Z,5.37
2017-09-16T09:51:15.223Z,5.17
2017-09-16T09:53:43.319Z,5.43
2017-09-16T09:56:11.395Z,4.57
2017-09-16T09:58:40.275Z,3.90
2017-09-16T10:01:08.350Z,4.40
2017-09-16T10:03:36.445Z,4.43
2017-09-16T10:06:05.279Z,4.80
2017-09-16T10:08:33.356Z,4.60
2017-09-16T10:11:01.437Z,3.57
2017-09-16T10:13:29.515Z,3.60
2017-09-16T10:15:57.616Z,3.00
2017-09-16T10:18:26.469Z,3.60
2017-09-16T10:20:54.556Z,3.70
2017-09-16T10:23:23.399Z,4.60
2017-09-16T10:25:51.496Z,3.90
2017-09-16T10:28:19.580Z,3.10
2017-09-16T10:30:47.661Z,3.40
2017-09-16T10:33:16.500Z,2.83
2017-09-16T10:35:44.583Z,3.20
2017-09-16T10:38:12.680Z,3.57
2017-09-16T10:40:41.530Z,3.10
2017-09-16T10:43:09.625Z,3.83
2017-09-16T10:45:37.705Z,4.03
2017-09-16T10:48:06.585Z,4.50
2017-09-16T10:50:35.135Z,3.67
2017-09-16T10:53:03.191Z,3.50
2017-09-16T10:55:31.281Z,4.07
2017-09-16T10:57:59.379Z,3.33
2017-09-16T11:00:27.560Z,3.60
2017-09-16T11:02:55.664Z,4.80
2017-09-16T11:05:23.753Z,5.90
2017-09-16T11:07:51.829Z,4.27
2017-09-16T11:10:20.051Z,4.10
2017-09-16T11:12:49.013Z,4.10
2017-09-16T11:15:17.086Z,3.90
2017-09-16T11:17:45.163Z,3.60
2017-09-16T11:20:13.336Z,3.70
2017-09-16T11:22:41.419Z,3.63
2017-09-16T11:25:10.274Z,3.50
2017-09-16T11:27:38.385Z,2.50
2017-09-16T11:30:07.234Z,3.07
2017-09-16T11:32:35.315Z,2.80
2017-09-16T11:35:03.394Z,3.07
2017-09-16T11:37:31.567Z,2.80
2017-09-16T11:39:59.641Z,2.30
2017-09-16T11:42:27.726Z,2.33
2017-09-16T11:44:55.783Z,2.70
2017-09-16T11:47:23.873Z,2.13
2017-09-16T11:49:52.719Z,2.73
2017-09-16T11:52:20.801Z,4.10
2017-09-16T11:54:48.879Z,2.57
2017-09-16T11:57:16.991Z,2.00
2017-09-16T11:59:45.059Z,2.43
2017-09-16T12:02:13.160Z,2.43
2017-09-16T12:04:41.243Z,1.93
2017-09-16T12:07:09.321Z,2.00
2017-09-16T12:09:37.408Z,2.40
2017-09-16T12:12:05.494Z,1.80
2017-09-16T12:14:33.585Z,1.53
2017-09-16T12:17:01.665Z,1.53
2017-09-16T12:19:29.755Z,2.67
2017-09-16T12:21:57.964Z,2.17
2017-09-16T12:24:26.064Z,3.20
2017-09-16T12:26:54.576Z,2.47
2017-09-16T12:29:22.722Z,1.70
2017-09-16T12:31:50.824Z,2.00
2017-09-16T12:34:19.223Z,1.83
2017-09-16T12:36:47.498Z,1.80
2017-09-16T12:39:16.360Z,1.63
2017-09-16T12:41:44.451Z,1.93
2017-09-16T12:44:12.657Z,1.33
2017-09-16T12:46:41.555Z,1.90
2017-09-16T12:49:09.791Z,1.90
2017-09-16T12:51:38.021Z,1.80
2017-09-16T12:54:06.380Z,5.80
2017-09-16T12:56:34.512Z,2.30
2017-09-16T12:59:02.866Z,1.70
2017-09-16T13:01:30.993Z,1.80
2017-09-16T13:03:59.080Z,1.50
2017-09-16T13:06:27.160Z,1.40
2017-09-16T13:08:55.275Z,1.40
2017-09-16T13:11:23.363Z,1.47
2017-09-16T13:13:52.348Z,1.53
2017-09-16T13:16:20.491Z,1.50
2017-09-16T13:18:48.576Z,1.80
2017-09-16T13:21:16.657Z,1.60
2017-09-16T13:23:44.748Z,1.40
2017-09-16T13:26:13.713Z,1.60
2017-09-16T13:28:41.815Z,1.67
2017-09-16T13:31:09.895Z,1.70
2017-09-16T13:33:38.007Z,1.70
2017-09-16T13:36:06.101Z,1.30
2017-09-16T13:38:34.181Z,1.43
2017-09-16T13:41:03.048Z,1.33
2017-09-16T13:43:31.128Z,1.10
2017-09-16T13:45:59.208Z,1.00
2017-09-16T13:48:28.053Z,2.27
2017-09-16T13:50:56.151Z,1.50
2017-09-16T13:53:24.991Z,2.50
2017-09-16T13:55:53.080Z,1.80
2017-09-16T13:58:21.170Z,2.83
2017-09-16T14:00:50.023Z,1.83
2017-09-16T14:03:18.426Z,1.50
2017-09-16T14:05:46.503Z,2.00
2017-09-16T14:08:14.594Z,2.73
2017-09-16T14:10:42.868Z,2.60
2017-09-16T14:13:10.948Z,1.67
2017-09-16T14:15:39.791Z,1.83
2017-09-16T14:18:07.984Z,1.70
2017-09-16T14:20:36.065Z,3.53
2017-09-16T14:23:04.243Z,1.07
2017-09-16T14:25:32.323Z,1.20
2017-09-16T14:28:00.407Z,1.20
2017-09-16T14:30:28.497Z,1.20
2017-09-16T14:32:56.574Z,1.20
2017-09-16T14:35:24.668Z,1.40
2017-09-16T14:37:52.743Z,1.53
2017-09-16T14:40:20.960Z,1.60
2017-09-16T14:42:49.095Z,4.43
2017-09-16T14:45:17.180Z,3.60
2017-09-16T14:47:45.281Z,1.43
2017-09-16T14:50:13.352Z,1.50
2017-09-16T14:52:41.692Z,1.50
2017-09-16T14:55:11.299Z,1.50
2017-09-16T14:57:39.387Z,1.80
2017-09-16T15:00:08.368Z,1.80
2017-09-16T15:02:38.069Z,3.03
2017-09-16T15:05:07.771Z,1.60
2017-09-16T15:07:35.859Z,1.90
2017-09-16T15:10:04.703Z,1.87
2017-09-16T15:12:32.796Z,3.00
2017-09-16T15:15:00.872Z,1.50
2017-09-16T15:17:28.955Z,1.67
2017-09-16T15:19:57.037Z,2.80
2017-09-16T15:22:25.875Z,2.37
2017-09-16T15:24:53.960Z,1.67
2017-09-16T15:27:22.049Z,2.23
2017-09-16T15:29:50.127Z,3.00
2017-09-16T15:32:18.972Z,2.40
2017-09-16T15:34:47.067Z,2.30
2017-09-16T15:37:15.119Z,2.23
2017-09-16T15:39:43.217Z,1.90
2017-09-16T15:42:11.298Z,1.80
2017-09-16T15:44:39.371Z,2.03
2017-09-16T15:47:08.269Z,2.13
2017-09-16T15:49:36.524Z,2.00
2017-09-16T15:52:04.607Z,2.00
2017-09-16T15:54:33.447Z,2.80
2017-09-16T15:57:01.527Z,3.00
2017-09-16T15:59:29.608Z,3.50
2017-09-16T16:01:57.701Z,3.30
2017-09-16T16:04:25.771Z,5.00
2017-09-16T16:06:53.835Z,4.30
2017-09-16T16:09:21.936Z,4.70
2017-09-16T16:11:50.004Z,4.23
2017-09-16T16:14:18.084Z,2.90
2017-09-16T16:16:46.169Z,1.90
2017-09-16T16:19:14.250Z,2.20
2017-09-16T16:21:42.327Z,2.37
2017-09-16T16:24:10.419Z,2.10
2017-09-16T16:26:38.496Z,1.90
2017-09-16T16:29:06.577Z,1.90
2017-09-16T16:31:35.423Z,1.77
2017-09-16T16:34:03.495Z,2.27
2017-09-16T16:36:31.575Z,6.60
2017-09-16T16:38:59.659Z,4.70
2017-09-16T16:41:27.830Z,3.60
2017-09-16T16:43:55.922Z,4.17
2017-09-16T16:46:24.003Z,4.40
2017-09-16T16:48:52.082Z,4.63
2017-09-16T16:51:20.167Z,3.43
2017-09-16T16:53:48.253Z,3.60
2017-09-16T16:56:16.340Z,4.50
2017-09-16T16:58:44.521Z,3.80
2017-09-16T17:01:12.594Z,3.80
2017-09-16T17:03:40.676Z,5.60
2017-09-16T17:06:08.751Z,7.40
2017-09-16T17:08:37.626Z,8.03
2017-09-16T17:11:05.701Z,5.80
2017-09-16T17:13:35.280Z,5.77
2017-09-16T17:16:03.358Z,8.73
2017-09-16T17:18:31.444Z,7.20
2017-09-16T17:21:00.354Z,6.40
2017-09-16T17:23:29.204Z,5.33
2017-09-16T17:25:57.312Z,3.90
2017-09-16T17:28:26.144Z,3.70
2017-09-16T17:30:54.231Z,3.60
2017-09-16T17:33:22.307Z,4.07
2017-09-16T17:35:51.181Z,3.23
2017-09-16T17:38:19.384Z,3.20
2017-09-16T17:40:47.468Z,4.07
2017-09-16T17:43:16.316Z,4.80
2017-09-16T17:45:44.398Z,5.47
2017-09-16T17:48:12.471Z,6.33
2017-09-16T17:50:40.553Z,6.60
2017-09-16T17:53:08.642Z,6.90
2017-09-16T17:55:37.472Z,4.53
2017-09-16T17:58:05.567Z,5.23
2017-09-16T18:00:33.636Z,6.23
2017-09-16T18:03:01.737Z,6.30
2017-09-16T18:05:30.583Z,8.20
2017-09-16T18:07:58.660Z,6.90
2017-09-16T18:10:26.744Z,4.90
2017-09-16T18:12:54.820Z,4.30
2017-09-16T18:15:22.908Z,4.57
2017-09-16T18:17:51.747Z,4.80
2017-09-16T18:20:19.826Z,4.83
2017-09-16T18:22:47.904Z,5.20
2017-09-16T18:25:15.997Z,6.43
2017-09-16T18:27:44.063Z,6.43
2017-09-16T18:30:12.147Z,5.57
2017-09-16T18:32:40.988Z,5.07
2017-09-16T18:35:09.093Z,4.03
2017-09-16T18:37:37.169Z,4.37
2017-09-16T18:40:06.012Z,4.40
2017-09-16T18:42:34.095Z,3.70
2017-09-16T18:45:02.204Z,5.90
2017-09-16T18:47:31.039Z,11.83
2017-09-16T18:49:59.136Z,19.07
2017-09-16T18:52:27.229Z,15.73
2017-09-16T18:54:56.091Z,16.40
2017-09-16T18:57:24.182Z,10.57
2017-09-16T18:59:53.030Z,5.10
2017-09-16T19:02:21.104Z,4.73
2017-09-16T19:04:49.187Z,6.57
2017-09-16T19:07:17.267Z,4.97
2017-09-16T19:09:45.343Z,5.00
2017-09-16T19:12:13.428Z,4.20
2017-09-16T19:14:42.292Z,3.50
2017-09-16T19:17:10.375Z,3.50
2017-09-16T19:19:38.443Z,3.13
2017-09-16T19:22:06.531Z,3.30
2017-09-16T19:24:35.375Z,3.27
2017-09-16T19:27:03.468Z,3.10
2017-09-16T19:29:31.543Z,3.10
2017-09-16T19:31:59.620Z,3.80
2017-09-16T19:34:28.463Z,3.83
2017-09-16T19:36:56.558Z,3.83
2017-09-16T19:39:25.548Z,4.03
2017-09-16T19:41:53.628Z,4.30
2017-09-16T19:44:21.708Z,4.90
2017-09-16T19:46:49.792Z,5.70
2017-09-16T19:49:18.641Z,4.93
2017-09-16T19:51:46.727Z,5.50
2017-09-16T19:54:14.807Z,6.10
2017-09-16T19:56:43.664Z,5.60
2017-09-16T19:59:11.746Z,6.07
2017-09-16T20:01:39.834Z,6.40
2017-09-16T20:04:07.904Z,6.60
2017-09-16T20:06:35.993Z,8.10
2017-09-16T20:09:04.830Z,9.87
2017-09-16T20:11:32.925Z,9.80
2017-09-16T20:14:00.999Z,8.60
2017-09-16T20:16:29.076Z,9.00
2017-09-16T20:18:57.921Z,8.13
2017-09-16T20:21:26.001Z,7.60
2017-09-16T20:23:54.077Z,7.40
2017-09-16T20:26:22.168Z,6.70
2017-09-16T20:28:50.455Z,7.10
2017-09-16T20:31:19.309Z,5.60
2017-09-16T20:33:47.379Z,6.10
2017-09-16T20:36:15.490Z,6.23
2017-09-16T20:38:44.325Z,7.60
2017-09-16T20:41:12.428Z,11.43
2017-09-16T20:43:41.285Z,7.63
2017-09-16T20:46:09.367Z,9.10
2017-09-16T20:48:37.453Z,6.20
2017-09-16T20:51:05.889Z,5.20
2017-09-16T20:53:33.975Z,5.73
2017-09-16T20:56:02.059Z,5.87
2017-09-16T20:58:30.136Z,6.97
2017-09-16T21:00:58.429Z,6.53
2017-09-16T21:03:27.320Z,6.80
2017-09-16T21:05:56.171Z,6.03
2017-09-16T21:08:24.246Z,6.00
2017-09-16T21:10:52.323Z,5.70
2017-09-16T21:13:20.433Z,7.07
2017-09-16T21:15:49.273Z,6.47
2017-09-16T21:18:17.351Z,6.67
2017-09-16T21:20:45.464Z,6.67
2017-09-16T21:23:14.302Z,6.63
2017-09-16T21:25:42.386Z,6.33
2017-09-16T21:28:10.486Z,5.33
2017-09-16T21:30:39.404Z,8.37
2017-09-16T21:33:07.504Z,6.20
2017-09-16T21:35:35.588Z,6.07
2017-09-16T21:38:05.183Z,6.10
2017-09-16T21:40:33.255Z,5.80
2017-09-16T21:43:01.334Z,5.47
2017-09-16T21:45:29.515Z,5.53
2017-09-16T21:47:59.227Z,5.67
2017-09-16T21:50:27.503Z,5.60
2017-09-16T21:52:55.597Z,14.20
2017-09-16T21:55:24.440Z,8.97
2017-09-16T21:57:52.583Z,9.00
2017-09-16T22:00:20.876Z,6.60
2017-09-16T22:02:48.956Z,6.43
2017-09-16T22:05:17.039Z,5.73
2017-09-16T22:07:45.137Z,5.37
2017-09-16T22:10:13.200Z,5.23
2017-09-16T22:12:42.180Z,5.87
2017-09-16T22:15:10.261Z,5.20
2017-09-16T22:17:38.352Z,6.00
2017-09-16T22:20:06.528Z,6.10
2017-09-16T22:22:34.667Z,4.60
2017-09-16T22:25:03.558Z,4.80
2017-09-16T22:27:31.635Z,5.30
2017-09-16T22:30:00.476Z,6.13
2017-09-16T22:32:28.555Z,5.60
2017-09-16T22:34:56.652Z,5.17
2017-09-16T22:37:24.731Z,6.83
2017-09-16T22:39:52.807Z,6.77
2017-09-16T22:42:20.956Z,8.83
2017-09-16T22:44:49.037Z,9.40
2017-09-16T22:47:17.417Z,9.90
2017-09-16T22:49:45.496Z,8.33
2017-09-16T22:52:14.349Z,7.90
2017-09-16T22:54:42.430Z,10.90
2017-09-16T22:57:10.520Z,14.83
2017-09-16T22:59:38.600Z,10.57
2017-09-16T23:02:06.847Z,8.10
2017-09-16T23:04:35.008Z,6.80
2017-09-16T23:07:03.179Z,9.40
2017-09-16T23:09:31.292Z,16.50
2017-09-16T23:11:59.430Z,8.30
2017-09-16T23:14:27.508Z,6.40
2017-09-16T23:16:55.680Z,7.00
2017-09-16T23:19:23.771Z,7.00
2017-09-16T23:21:52.607Z,8.90
2017-09-16T23:24:20.686Z,8.13
2017-09-16T23:26:48.776Z,8.37
2017-09-16T23:29:16.853Z,7.93
2017-09-16T23:31:44.927Z,7.50
2017-09-16T23:34:13.008Z,6.60
2017-09-16T23:36:41.268Z,6.97
2017-09-16T23:39:09.351Z,6.00
2017-09-16T23:41:37.441Z,6.10
2017-09-16T23:44:05.520Z,6.53
2017-09-16T23:46:33.625Z,6.20
2017-09-16T23:49:01.696Z,7.00
2017-09-16T23:51:29.781Z,7.00
2017-09-16T23:53:57.862Z,7.20
2017-09-16T23:56:26.713Z,6.10
2017-09-16T23:58:54.792Z,14.80
